sensor_id;sensor_type;location;lat;lon;timestamp;temperature;humidity
23633;DHT22;11993;48.748;9.166;2024-03-17T00:02:05;9.50;79.50
23633;DHT22;11993;48.748;9.166;2024-03-17T00:04:31;9.50;79.50
23633;DHT22;11993;48.748;9.166;2024-03-17T00:06:57;9.50;79.60
23633;DHT22;11993;48.748;9.166;2024-03-17T00:09:23;9.60;79.20
23633;DHT22;11993;48.748;9.166;2024-03-17T00:11:49;9.60;78.90
23633;DHT22;11993;48.748;9.166;2024-03-17T00:14:15;9.60;79.10
23633;DHT22;11993;48.748;9.166;2024-03-17T00:16:41;9.40;79.50
23633;DHT22;11993;48.748;9.166;2024-03-17T00:19:07;9.50;79.50
23633;DHT22;11993;48.748;9.166;2024-03-17T00:21:32;9.40;79.60
23633;DHT22;11993;48.748;9.166;2024-03-17T00:23:58;9.40;79.60
23633;DHT22;11993;48.748;9.166;2024-03-17T00:26:23;9.50;79.60
23633;DHT22;11993;48.748;9.166;2024-03-17T00:28:50;9.40;79.40
23633;DHT22;11993;48.748;9.166;2024-03-17T00:31:16;9.50;79.70
23633;DHT22;11993;48.748;9.166;2024-03-17T00:33:42;9.30;79.90
23633;DHT22;11993;48.748;9.166;2024-03-17T00:36:09;9.50;79.80
23633;DHT22;11993;48.748;9.166;2024-03-17T00:38:34;9.50;79.80
23633;DHT22;11993;48.748;9.166;2024-03-17T00:41:02;9.30;80.00
23633;DHT22;11993;48.748;9.166;2024-03-17T00:43:28;9.10;80.30
23633;DHT22;11993;48.748;9.166;2024-03-17T00:45:53;9.20;80.40
23633;DHT22;11993;48.748;9.166;2024-03-17T00:48:19;9.10;80.70
23633;DHT22;11993;48.748;9.166;2024-03-17T00:50:45;9.20;80.70
23633;DHT22;11993;48.748;9.166;2024-03-17T00:53:13;8.90;81.60
23633;DHT22;11993;48.748;9.166;2024-03-17T00:55:39;8.90;81.80
23633;DHT22;11993;48.748;9.166;2024-03-17T00:58:05;8.70;82.20
23633;DHT22;11993;48.748;9.166;2024-03-17T01:00:31;8.60;83.40
23633;DHT22;11993;48.748;9.166;2024-03-17T01:02:58;8.60;83.90
23633;DHT22;11993;48.748;9.166;2024-03-17T01:05:24;8.60;84.40
23633;DHT22;11993;48.748;9.166;2024-03-17T01:07:49;8.60;84.40
23633;DHT22;11993;48.748;9.166;2024-03-17T01:10:15;8.60;84.40
23633;DHT22;11993;48.748;9.166;2024-03-17T01:12:41;8.60;84.40
23633;DHT22;11993;48.748;9.166;2024-03-17T01:15:07;8.60;84.40
23633;DHT22;11993;48.748;9.166;2024-03-17T01:17:33;8.60;84.50
23633;DHT22;11993;48.748;9.166;2024-03-17T01:19:59;8.60;84.70
23633;DHT22;11993;48.748;9.166;2024-03-17T01:22:25;8.50;84.90
23633;DHT22;11993;48.748;9.166;2024-03-17T01:24:51;8.60;84.70
23633;DHT22;11993;48.748;9.166;2024-03-17T01:27:17;8.60;84.70
23633;DHT22;11993;48.748;9.166;2024-03-17T01:29:42;8.40;85.20
23633;DHT22;11993;48.748;9.166;2024-03-17T01:32:09;8.40;85.60
23633;DHT22;11993;48.748;9.166;2024-03-17T01:34:36;8.40;85.50
23633;DHT22;11993;48.748;9.166;2024-03-17T01:37:02;8.60;85.10
23633;DHT22;11993;48.748;9.166;2024-03-17T01:39:27;8.40;85.30
23633;DHT22;11993;48.748;9.166;2024-03-17T01:41:53;8.60;85.10
23633;DHT22;11993;48.748;9.166;2024-03-17T01:44:28;8.50;85.00
23633;DHT22;11993;48.748;9.166;2024-03-17T01:46:57;8.40;85.00
23633;DHT22;11993;48.748;9.166;2024-03-17T01:49:24;8.50;84.80
23633;DHT22;11993;48.748;9.166;2024-03-17T01:51:51;8.40;85.20
23633;DHT22;11993;48.748;9.166;2024-03-17T01:54:17;8.20;85.90
23633;DHT22;11993;48.748;9.166;2024-03-17T01:56:44;8.40;86.00
23633;DHT22;11993;48.748;9.166;2024-03-17T01:59:10;8.10;86.70
23633;DHT22;11993;48.748;9.166;2024-03-17T02:01:36;8.20;86.50
23633;DHT22;11993;48.748;9.166;2024-03-17T02:04:04;8.20;86.40
23633;DHT22;11993;48.748;9.166;2024-03-17T02:06:29;8.00;86.80
23633;DHT22;11993;48.748;9.166;2024-03-17T02:08:56;8.10;86.90
23633;DHT22;11993;48.748;9.166;2024-03-17T02:13:52;8.40;86.30
23633;DHT22;11993;48.748;9.166;2024-03-17T02:16:18;8.10;86.80
23633;DHT22;11993;48.748;9.166;2024-03-17T02:18:45;8.10;86.90
23633;DHT22;11993;48.748;9.166;2024-03-17T02:21:11;8.10;86.80
23633;DHT22;11993;48.748;9.166;2024-03-17T02:23:37;8.10;86.70
23633;DHT22;11993;48.748;9.166;2024-03-17T02:26:02;8.10;86.70
23633;DHT22;11993;48.748;9.166;2024-03-17T02:28:28;8.10;86.60
23633;DHT22;11993;48.748;9.166;2024-03-17T02:30:54;8.00;86.80
23633;DHT22;11993;48.748;9.166;2024-03-17T02:33:20;8.00;86.50
23633;DHT22;11993;48.748;9.166;2024-03-17T02:35:48;8.10;86.30
23633;DHT22;11993;48.748;9.166;2024-03-17T02:38:17;8.10;86.20
23633;DHT22;11993;48.748;9.166;2024-03-17T02:41:05;8.10;86.30
23633;DHT22;11993;48.748;9.166;2024-03-17T02:43:30;8.00;86.50
23633;DHT22;11993;48.748;9.166;2024-03-17T02:45:56;8.10;86.20
23633;DHT22;11993;48.748;9.166;2024-03-17T02:48:22;7.90;86.90
23633;DHT22;11993;48.748;9.166;2024-03-17T02:50:48;7.90;86.90
23633;DHT22;11993;48.748;9.166;2024-03-17T02:53:14;8.00;86.80
23633;DHT22;11993;48.748;9.166;2024-03-17T02:55:39;7.90;86.90
23633;DHT22;11993;48.748;9.166;2024-03-17T02:58:06;7.90;86.90
23633;DHT22;11993;48.748;9.166;2024-03-17T03:00:32;7.90;86.70
23633;DHT22;11993;48.748;9.166;2024-03-17T03:02:57;7.90;86.80
23633;DHT22;11993;48.748;9.166;2024-03-17T03:05:23;7.80;86.80
23633;DHT22;11993;48.748;9.166;2024-03-17T03:07:48;7.90;86.80
23633;DHT22;11993;48.748;9.166;2024-03-17T03:10:14;7.90;86.40
23633;DHT22;11993;48.748;9.166;2024-03-17T03:12:39;7.90;86.70
23633;DHT22;11993;48.748;9.166;2024-03-17T03:15:05;7.80;86.50
23633;DHT22;11993;48.748;9.166;2024-03-17T03:17:31;8.00;86.40
23633;DHT22;11993;48.748;9.166;2024-03-17T03:19:56;8.00;86.60
23633;DHT22;11993;48.748;9.166;2024-03-17T03:22:22;8.00;86.20
23633;DHT22;11993;48.748;9.166;2024-03-17T03:24:49;8.00;86.30
23633;DHT22;11993;48.748;9.166;2024-03-17T03:27:17;7.90;86.40
23633;DHT22;11993;48.748;9.166;2024-03-17T03:29:43;7.80;86.80
23633;DHT22;11993;48.748;9.166;2024-03-17T03:32:08;7.90;86.60
23633;DHT22;11993;48.748;9.166;2024-03-17T03:34:34;8.00;86.30
23633;DHT22;11993;48.748;9.166;2024-03-17T03:36:59;7.90;86.40
23633;DHT22;11993;48.748;9.166;2024-03-17T03:39:25;7.80;86.40
23633;DHT22;11993;48.748;9.166;2024-03-17T03:41:56;7.80;86.40
23633;DHT22;11993;48.748;9.166;2024-03-17T03:44:22;8.00;86.50
23633;DHT22;11993;48.748;9.166;2024-03-17T03:46:48;7.90;86.40
23633;DHT22;11993;48.748;9.166;2024-03-17T03:49:13;7.60;87.30
23633;DHT22;11993;48.748;9.166;2024-03-17T03:51:39;7.60;87.60
23633;DHT22;11993;48.748;9.166;2024-03-17T03:54:05;7.70;87.40
23633;DHT22;11993;48.748;9.166;2024-03-17T03:56:32;7.60;87.40
23633;DHT22;11993;48.748;9.166;2024-03-17T03:58:59;7.60;87.50
23633;DHT22;11993;48.748;9.166;2024-03-17T04:01:24;7.60;87.60
23633;DHT22;11993;48.748;9.166;2024-03-17T04:03:50;7.60;87.70
23633;DHT22;11993;48.748;9.166;2024-03-17T04:06:16;7.70;87.30
23633;DHT22;11993;48.748;9.166;2024-03-17T04:08:42;7.80;87.30
23633;DHT22;11993;48.748;9.166;2024-03-17T04:11:08;7.90;86.90
23633;DHT22;11993;48.748;9.166;2024-03-17T04:13:34;8.00;86.70
23633;DHT22;11993;48.748;9.166;2024-03-17T04:16:00;7.80;86.90
23633;DHT22;11993;48.748;9.166;2024-03-17T04:18:27;7.70;87.30
23633;DHT22;11993;48.748;9.166;2024-03-17T04:20:56;7.70;87.10
23633;DHT22;11993;48.748;9.166;2024-03-17T04:23:23;7.70;87.10
23633;DHT22;11993;48.748;9.166;2024-03-17T04:25:50;7.70;87.20
23633;DHT22;11993;48.748;9.166;2024-03-17T04:28:16;7.70;87.10
23633;DHT22;11993;48.748;9.166;2024-03-17T04:30:41;7.80;87.30
23633;DHT22;11993;48.748;9.166;2024-03-17T04:33:08;7.70;87.20
23633;DHT22;11993;48.748;9.166;2024-03-17T04:35:38;7.70;87.50
23633;DHT22;11993;48.748;9.166;2024-03-17T04:38:04;7.80;87.40
23633;DHT22;11993;48.748;9.166;2024-03-17T04:40:31;7.70;87.70
23633;DHT22;11993;48.748;9.166;2024-03-17T04:42:56;7.70;87.80
23633;DHT22;11993;48.748;9.166;2024-03-17T04:45:22;7.70;87.50
23633;DHT22;11993;48.748;9.166;2024-03-17T04:47:47;7.60;87.70
23633;DHT22;11993;48.748;9.166;2024-03-17T04:50:13;7.60;87.90
23633;DHT22;11993;48.748;9.166;2024-03-17T04:52:39;7.50;88.20
23633;DHT22;11993;48.748;9.166;2024-03-17T04:55:04;7.50;88.20
23633;DHT22;11993;48.748;9.166;2024-03-17T04:57:30;7.60;88.00
23633;DHT22;11993;48.748;9.166;2024-03-17T04:59:56;7.30;88.70
23633;DHT22;11993;48.748;9.166;2024-03-17T05:02:21;7.30;88.70
23633;DHT22;11993;48.748;9.166;2024-03-17T05:04:48;7.10;89.00
23633;DHT22;11993;48.748;9.166;2024-03-17T05:07:14;7.10;89.20
23633;DHT22;11993;48.748;9.166;2024-03-17T05:09:39;7.00;89.70
23633;DHT22;11993;48.748;9.166;2024-03-17T05:12:05;7.00;89.70
23633;DHT22;11993;48.748;9.166;2024-03-17T05:14:31;7.00;89.40
23633;DHT22;11993;48.748;9.166;2024-03-17T05:16:56;7.00;89.30
23633;DHT22;11993;48.748;9.166;2024-03-17T05:19:22;7.10;89.10
23633;DHT22;11993;48.748;9.166;2024-03-17T05:21:48;7.20;89.00
23633;DHT22;11993;48.748;9.166;2024-03-17T05:24:14;7.00;89.40
23633;DHT22;11993;48.748;9.166;2024-03-17T05:26:39;7.00;89.20
23633;DHT22;11993;48.748;9.166;2024-03-17T05:29:05;7.10;89.10
23633;DHT22;11993;48.748;9.166;2024-03-17T05:31:31;7.30;89.00
23633;DHT22;11993;48.748;9.166;2024-03-17T05:33:57;7.30;88.50
23633;DHT22;11993;48.748;9.166;2024-03-17T05:36:22;7.30;88.30
23633;DHT22;11993;48.748;9.166;2024-03-17T05:38:48;7.30;88.50
23633;DHT22;11993;48.748;9.166;2024-03-17T05:41:14;7.30;88.60
23633;DHT22;11993;48.748;9.166;2024-03-17T05:43:39;7.40;88.50
23633;DHT22;11993;48.748;9.166;2024-03-17T05:46:07;7.30;88.90
23633;DHT22;11993;48.748;9.166;2024-03-17T05:48:34;7.30;88.60
23633;DHT22;11993;48.748;9.166;2024-03-17T05:51:02;7.50;88.40
23633;DHT22;11993;48.748;9.166;2024-03-17T05:53:28;7.60;88.40
23633;DHT22;11993;48.748;9.166;2024-03-17T05:55:54;7.50;88.30
23633;DHT22;11993;48.748;9.166;2024-03-17T05:58:20;7.30;88.50
23633;DHT22;11993;48.748;9.166;2024-03-17T06:00:46;7.40;88.50
23633;DHT22;11993;48.748;9.166;2024-03-17T06:03:11;7.40;88.70
23633;DHT22;11993;48.748;9.166;2024-03-17T06:05:39;7.40;88.60
23633;DHT22;11993;48.748;9.166;2024-03-17T06:08:08;7.30;88.60
23633;DHT22;11993;48.748;9.166;2024-03-17T06:10:35;7.50;88.50
23633;DHT22;11993;48.748;9.166;2024-03-17T06:13:02;7.20;88.50
23633;DHT22;11993;48.748;9.166;2024-03-17T06:15:28;7.30;88.60
23633;DHT22;11993;48.748;9.166;2024-03-17T06:17:54;7.40;88.20
23633;DHT22;11993;48.748;9.166;2024-03-17T06:20:20;7.60;88.10
23633;DHT22;11993;48.748;9.166;2024-03-17T06:22:46;7.80;87.40
23633;DHT22;11993;48.748;9.166;2024-03-17T06:25:15;7.70;87.40
23633;DHT22;11993;48.748;9.166;2024-03-17T06:27:40;7.50;88.00
23633;DHT22;11993;48.748;9.166;2024-03-17T06:30:06;7.60;87.90
23633;DHT22;11993;48.748;9.166;2024-03-17T06:32:36;7.60;87.50
23633;DHT22;11993;48.748;9.166;2024-03-17T06:35:02;7.50;87.90
23633;DHT22;11993;48.748;9.166;2024-03-17T06:37:27;7.50;88.50
23633;DHT22;11993;48.748;9.166;2024-03-17T06:39:53;7.60;88.10
23633;DHT22;11993;48.748;9.166;2024-03-17T06:42:22;7.90;87.20
23633;DHT22;11993;48.748;9.166;2024-03-17T06:44:47;8.10;86.90
23633;DHT22;11993;48.748;9.166;2024-03-17T06:47:13;8.20;86.60
23633;DHT22;11993;48.748;9.166;2024-03-17T06:49:38;8.20;86.00
23633;DHT22;11993;48.748;9.166;2024-03-17T06:52:04;8.10;86.20
23633;DHT22;11993;48.748;9.166;2024-03-17T06:54:30;8.40;85.40
23633;DHT22;11993;48.748;9.166;2024-03-17T06:56:57;8.70;84.60
23633;DHT22;11993;48.748;9.166;2024-03-17T06:59:23;8.90;84.40
23633;DHT22;11993;48.748;9.166;2024-03-17T07:01:49;9.10;84.00
23633;DHT22;11993;48.748;9.166;2024-03-17T07:04:15;9.10;83.00
23633;DHT22;11993;48.748;9.166;2024-03-17T07:06:42;9.30;82.40
23633;DHT22;11993;48.748;9.166;2024-03-17T07:09:07;9.20;82.50
23633;DHT22;11993;48.748;9.166;2024-03-17T07:11:34;9.30;82.70
23633;DHT22;11993;48.748;9.166;2024-03-17T07:13:59;9.30;82.50
23633;DHT22;11993;48.748;9.166;2024-03-17T07:16:25;9.60;81.30
23633;DHT22;11993;48.748;9.166;2024-03-17T07:18:51;9.40;81.60
23633;DHT22;11993;48.748;9.166;2024-03-17T07:21:18;9.10;82.40
23633;DHT22;11993;48.748;9.166;2024-03-17T07:23:44;8.90;83.00
23633;DHT22;11993;48.748;9.166;2024-03-17T07:26:09;9.10;83.20
23633;DHT22;11993;48.748;9.166;2024-03-17T07:28:35;9.00;83.40
23633;DHT22;11993;48.748;9.166;2024-03-17T07:31:06;9.00;83.70
23633;DHT22;11993;48.748;9.166;2024-03-17T07:33:33;9.10;83.50
23633;DHT22;11993;48.748;9.166;2024-03-17T07:35:59;9.50;82.70
23633;DHT22;11993;48.748;9.166;2024-03-17T07:38:29;9.10;83.00
23633;DHT22;11993;48.748;9.166;2024-03-17T07:41:06;9.50;81.80
23633;DHT22;11993;48.748;9.166;2024-03-17T07:43:32;9.80;81.20
23633;DHT22;11993;48.748;9.166;2024-03-17T07:46:06;9.70;80.90
23633;DHT22;11993;48.748;9.166;2024-03-17T07:48:34;9.70;80.50
23633;DHT22;11993;48.748;9.166;2024-03-17T07:51:02;10.00;79.50
23633;DHT22;11993;48.748;9.166;2024-03-17T07:53:31;10.40;78.90
23633;DHT22;11993;48.748;9.166;2024-03-17T07:56:02;10.10;79.00
23633;DHT22;11993;48.748;9.166;2024-03-17T07:58:29;10.30;78.00
23633;DHT22;11993;48.748;9.166;2024-03-17T08:01:00;10.40;77.80
23633;DHT22;11993;48.748;9.166;2024-03-17T08:03:27;10.50;77.60
23633;DHT22;11993;48.748;9.166;2024-03-17T08:05:52;9.80;79.30
23633;DHT22;11993;48.748;9.166;2024-03-17T08:08:19;10.10;78.70
23633;DHT22;11993;48.748;9.166;2024-03-17T08:10:44;10.10;78.80
23633;DHT22;11993;48.748;9.166;2024-03-17T08:13:11;10.10;79.20
23633;DHT22;11993;48.748;9.166;2024-03-17T08:15:41;10.30;78.30
23633;DHT22;11993;48.748;9.166;2024-03-17T08:18:07;10.50;78.00
23633;DHT22;11993;48.748;9.166;2024-03-17T08:20:39;10.60;77.30
23633;DHT22;11993;48.748;9.166;2024-03-17T08:23:06;10.60;77.60
23633;DHT22;11993;48.748;9.166;2024-03-17T08:25:32;10.70;77.30
23633;DHT22;11993;48.748;9.166;2024-03-17T08:27:59;10.80;76.30
23633;DHT22;11993;48.748;9.166;2024-03-17T08:30:24;10.70;76.80
23633;DHT22;11993;48.748;9.166;2024-03-17T08:32:50;10.80;77.10
23633;DHT22;11993;48.748;9.166;2024-03-17T08:35:19;10.70;76.60
23633;DHT22;11993;48.748;9.166;2024-03-17T08:37:45;10.60;77.60
23633;DHT22;11993;48.748;9.166;2024-03-17T08:40:11;10.80;76.50
23633;DHT22;11993;48.748;9.166;2024-03-17T08:42:37;11.00;76.40
23633;DHT22;11993;48.748;9.166;2024-03-17T08:45:03;11.20;75.20
23633;DHT22;11993;48.748;9.166;2024-03-17T08:47:29;11.40;75.50
23633;DHT22;11993;48.748;9.166;2024-03-17T08:49:55;11.20;75.00
23633;DHT22;11993;48.748;9.166;2024-03-17T08:52:20;11.70;74.20
23633;DHT22;11993;48.748;9.166;2024-03-17T08:54:50;12.00;72.80
23633;DHT22;11993;48.748;9.166;2024-03-17T08:57:18;12.20;72.00
23633;DHT22;11993;48.748;9.166;2024-03-17T08:59:47;12.10;71.00
23633;DHT22;11993;48.748;9.166;2024-03-17T09:02:13;11.80;71.60
23633;DHT22;11993;48.748;9.166;2024-03-17T09:04:42;11.80;71.00
23633;DHT22;11993;48.748;9.166;2024-03-17T09:07:08;12.10;69.90
23633;DHT22;11993;48.748;9.166;2024-03-17T09:09:33;12.00;70.50
23633;DHT22;11993;48.748;9.166;2024-03-17T09:11:59;12.40;69.40
23633;DHT22;11993;48.748;9.166;2024-03-17T09:14:25;12.70;66.30
23633;DHT22;11993;48.748;9.166;2024-03-17T09:16:51;13.00;65.70
23633;DHT22;11993;48.748;9.166;2024-03-17T09:19:16;13.10;65.20
23633;DHT22;11993;48.748;9.166;2024-03-17T09:21:42;12.70;63.50
23633;DHT22;11993;48.748;9.166;2024-03-17T09:24:08;12.90;63.70
23633;DHT22;11993;48.748;9.166;2024-03-17T09:26:34;13.20;63.10
23633;DHT22;11993;48.748;9.166;2024-03-17T09:29:01;13.00;58.90
23633;DHT22;11993;48.748;9.166;2024-03-17T09:31:26;13.20;57.90
23633;DHT22;11993;48.748;9.166;2024-03-17T09:33:52;12.70;60.20
23633;DHT22;11993;48.748;9.166;2024-03-17T09:36:18;12.60;57.60
23633;DHT22;11993;48.748;9.166;2024-03-17T09:38:44;12.80;57.20
23633;DHT22;11993;48.748;9.166;2024-03-17T09:41:25;12.60;57.10
23633;DHT22;11993;48.748;9.166;2024-03-17T09:43:56;12.70;58.20
23633;DHT22;11993;48.748;9.166;2024-03-17T09:46:26;12.80;56.70
23633;DHT22;11993;48.748;9.166;2024-03-17T09:48:55;12.60;56.00
23633;DHT22;11993;48.748;9.166;2024-03-17T09:51:25;13.30;54.90
23633;DHT22;11993;48.748;9.166;2024-03-17T09:53:51;13.40;54.90
23633;DHT22;11993;48.748;9.166;2024-03-17T09:56:19;13.30;55.90
23633;DHT22;11993;48.748;9.166;2024-03-17T09:58:51;12.60;58.40
23633;DHT22;11993;48.748;9.166;2024-03-17T10:01:17;13.10;57.50
23633;DHT22;11993;48.748;9.166;2024-03-17T10:06:29;13.50;55.10
23633;DHT22;11993;48.748;9.166;2024-03-17T10:08:59;13.50;55.00
23633;DHT22;11993;48.748;9.166;2024-03-17T10:11:41;13.40;55.10
23633;DHT22;11993;48.748;9.166;2024-03-17T10:14:08;13.70;55.40
23633;DHT22;11993;48.748;9.166;2024-03-17T10:16:37;12.70;57.50
23633;DHT22;11993;48.748;9.166;2024-03-17T10:19:14;13.10;56.10
23633;DHT22;11993;48.748;9.166;2024-03-17T10:21:41;13.60;55.60
23633;DHT22;11993;48.748;9.166;2024-03-17T10:24:24;13.50;54.80
23633;DHT22;11993;48.748;9.166;2024-03-17T10:27:01;13.40;54.20
23633;DHT22;11993;48.748;9.166;2024-03-17T10:29:34;13.40;55.10
23633;DHT22;11993;48.748;9.166;2024-03-17T10:32:03;14.00;54.50
23633;DHT22;11993;48.748;9.166;2024-03-17T10:34:30;13.70;52.80
23633;DHT22;11993;48.748;9.166;2024-03-17T10:37:13;13.80;54.20
23633;DHT22;11993;48.748;9.166;2024-03-17T10:39:43;14.20;53.30
23633;DHT22;11993;48.748;9.166;2024-03-17T10:42:11;13.60;54.40
23633;DHT22;11993;48.748;9.166;2024-03-17T10:44:38;13.60;54.90
23633;DHT22;11993;48.748;9.166;2024-03-17T10:47:05;14.10;54.50
23633;DHT22;11993;48.748;9.166;2024-03-17T10:49:38;14.50;54.70
23633;DHT22;11993;48.748;9.166;2024-03-17T10:52:06;14.60;52.70
23633;DHT22;11993;48.748;9.166;2024-03-17T10:54:32;14.50;53.20
23633;DHT22;11993;48.748;9.166;2024-03-17T10:57:12;14.40;53.10
23633;DHT22;11993;48.748;9.166;2024-03-17T10:59:47;14.90;52.40
23633;DHT22;11993;48.748;9.166;2024-03-17T11:02:24;14.90;53.10
23633;DHT22;11993;48.748;9.166;2024-03-17T11:04:59;15.30;52.20
23633;DHT22;11993;48.748;9.166;2024-03-17T11:07:25;15.20;51.60
23633;DHT22;11993;48.748;9.166;2024-03-17T11:09:53;15.40;51.60
23633;DHT22;11993;48.748;9.166;2024-03-17T11:12:43;15.50;50.60
23633;DHT22;11993;48.748;9.166;2024-03-17T11:17:47;15.30;52.60
23633;DHT22;11993;48.748;9.166;2024-03-17T11:20:15;15.70;52.10
23633;DHT22;11993;48.748;9.166;2024-03-17T11:22:42;16.20;50.40
23633;DHT22;11993;48.748;9.166;2024-03-17T11:27:58;15.80;50.30
23633;DHT22;11993;48.748;9.166;2024-03-17T11:30:43;15.30;51.90
23633;DHT22;11993;48.748;9.166;2024-03-17T11:39:10;15.70;50.50
23633;DHT22;11993;48.748;9.166;2024-03-17T11:41:53;15.10;50.70
23633;DHT22;11993;48.748;9.166;2024-03-17T11:49:23;15.10;51.40
23633;DHT22;11993;48.748;9.166;2024-03-17T11:51:50;15.30;51.10
23633;DHT22;11993;48.748;9.166;2024-03-17T11:54:21;15.60;50.60
23633;DHT22;11993;48.748;9.166;2024-03-17T11:56:49;15.30;50.80
23633;DHT22;11993;48.748;9.166;2024-03-17T11:59:15;15.40;51.60
23633;DHT22;11993;48.748;9.166;2024-03-17T12:01:46;15.60;51.80
23633;DHT22;11993;48.748;9.166;2024-03-17T12:04:17;15.00;52.20
23633;DHT22;11993;48.748;9.166;2024-03-17T12:06:48;15.20;53.30
23633;DHT22;11993;48.748;9.166;2024-03-17T12:12:17;15.10;52.80
23633;DHT22;11993;48.748;9.166;2024-03-17T12:14:44;15.30;53.00
23633;DHT22;11993;48.748;9.166;2024-03-17T12:17:11;15.60;53.90
23633;DHT22;11993;48.748;9.166;2024-03-17T12:19:37;15.50;54.80
23633;DHT22;11993;48.748;9.166;2024-03-17T12:22:04;15.20;56.20
23633;DHT22;11993;48.748;9.166;2024-03-17T12:24:32;15.20;55.70
23633;DHT22;11993;48.748;9.166;2024-03-17T12:26:59;14.90;57.30
23633;DHT22;11993;48.748;9.166;2024-03-17T12:29:26;15.10;56.40
23633;DHT22;11993;48.748;9.166;2024-03-17T12:31:57;14.30;59.50
23633;DHT22;11993;48.748;9.166;2024-03-17T12:34:29;14.60;58.20
23633;DHT22;11993;48.748;9.166;2024-03-17T12:36:57;14.70;58.20
23633;DHT22;11993;48.748;9.166;2024-03-17T12:39:27;14.60;58.00
23633;DHT22;11993;48.748;9.166;2024-03-17T12:42:07;14.90;56.30
23633;DHT22;11993;48.748;9.166;2024-03-17T12:44:57;14.70;56.40
23633;DHT22;11993;48.748;9.166;2024-03-17T12:47:27;14.60;57.30
23633;DHT22;11993;48.748;9.166;2024-03-17T12:49:54;14.60;57.50
23633;DHT22;11993;48.748;9.166;2024-03-17T12:52:22;14.70;56.80
23633;DHT22;11993;48.748;9.166;2024-03-17T12:55:07;14.80;55.90
23633;DHT22;11993;48.748;9.166;2024-03-17T13:00:46;14.20;55.60
23633;DHT22;11993;48.748;9.166;2024-03-17T13:03:25;14.60;54.80
23633;DHT22;11993;48.748;9.166;2024-03-17T13:05:51;14.90;53.70
23633;DHT22;11993;48.748;9.166;2024-03-17T13:08:17;14.90;55.70
23633;DHT22;11993;48.748;9.166;2024-03-17T13:10:43;14.90;52.70
23633;DHT22;11993;48.748;9.166;2024-03-17T13:13:09;15.10;54.00
23633;DHT22;11993;48.748;9.166;2024-03-17T13:15:35;15.00;53.00
23633;DHT22;11993;48.748;9.166;2024-03-17T13:18:02;14.60;55.80
23633;DHT22;11993;48.748;9.166;2024-03-17T13:20:29;14.90;56.60
23633;DHT22;11993;48.748;9.166;2024-03-17T13:22:56;14.80;57.30
23633;DHT22;11993;48.748;9.166;2024-03-17T13:25:24;14.80;57.40
23633;DHT22;11993;48.748;9.166;2024-03-17T13:27:53;14.60;58.20
23633;DHT22;11993;48.748;9.166;2024-03-17T13:30:21;14.60;56.10
23633;DHT22;11993;48.748;9.166;2024-03-17T13:32:52;14.60;54.10
23633;DHT22;11993;48.748;9.166;2024-03-17T13:35:25;14.90;55.90
23633;DHT22;11993;48.748;9.166;2024-03-17T13:37:52;15.10;56.30
23633;DHT22;11993;48.748;9.166;2024-03-17T13:40:19;15.20;55.40
23633;DHT22;11993;48.748;9.166;2024-03-17T13:42:46;14.80;57.70
23633;DHT22;11993;48.748;9.166;2024-03-17T13:45:15;14.60;56.40
23633;DHT22;11993;48.748;9.166;2024-03-17T13:47:45;15.00;54.20
23633;DHT22;11993;48.748;9.166;2024-03-17T13:50:11;15.30;54.10
23633;DHT22;11993;48.748;9.166;2024-03-17T13:52:38;14.70;57.00
23633;DHT22;11993;48.748;9.166;2024-03-17T13:55:04;14.90;56.60
23633;DHT22;11993;48.748;9.166;2024-03-17T13:57:33;14.60;55.20
23633;DHT22;11993;48.748;9.166;2024-03-17T13:59:59;14.90;55.60
23633;DHT22;11993;48.748;9.166;2024-03-17T14:02:24;15.00;55.50
23633;DHT22;11993;48.748;9.166;2024-03-17T14:04:50;15.10;55.20
23633;DHT22;11993;48.748;9.166;2024-03-17T14:07:15;15.20;55.10
23633;DHT22;11993;48.748;9.166;2024-03-17T14:09:41;15.10;55.40
23633;DHT22;11993;48.748;9.166;2024-03-17T14:12:09;15.00;55.70
23633;DHT22;11993;48.748;9.166;2024-03-17T14:14:35;15.10;55.60
23633;DHT22;11993;48.748;9.166;2024-03-17T14:17:01;15.20;54.60
23633;DHT22;11993;48.748;9.166;2024-03-17T14:19:26;15.50;54.90
23633;DHT22;11993;48.748;9.166;2024-03-17T14:21:52;15.90;53.60
23633;DHT22;11993;48.748;9.166;2024-03-17T14:24:18;15.90;54.20
23633;DHT22;11993;48.748;9.166;2024-03-17T14:26:43;16.20;52.40
23633;DHT22;11993;48.748;9.166;2024-03-17T14:29:09;16.10;52.50
23633;DHT22;11993;48.748;9.166;2024-03-17T14:31:34;15.80;52.80
23633;DHT22;11993;48.748;9.166;2024-03-17T14:34:04;15.90;51.80
23633;DHT22;11993;48.748;9.166;2024-03-17T14:36:33;16.00;51.50
23633;DHT22;11993;48.748;9.166;2024-03-17T14:39:01;15.70;52.80
23633;DHT22;11993;48.748;9.166;2024-03-17T14:41:30;15.90;52.70
23633;DHT22;11993;48.748;9.166;2024-03-17T14:43:59;15.90;52.40
23633;DHT22;11993;48.748;9.166;2024-03-17T14:46:26;15.90;51.90
23633;DHT22;11993;48.748;9.166;2024-03-17T14:48:52;15.90;51.60
23633;DHT22;11993;48.748;9.166;2024-03-17T14:51:18;16.00;52.20
23633;DHT22;11993;48.748;9.166;2024-03-17T14:53:44;15.60;52.50
23633;DHT22;11993;48.748;9.166;2024-03-17T14:56:15;15.50;53.10
23633;DHT22;11993;48.748;9.166;2024-03-17T14:58:42;15.10;53.70
23633;DHT22;11993;48.748;9.166;2024-03-17T15:01:07;15.40;53.80
23633;DHT22;11993;48.748;9.166;2024-03-17T15:03:37;15.30;53.40
23633;DHT22;11993;48.748;9.166;2024-03-17T15:06:03;15.20;53.80
23633;DHT22;11993;48.748;9.166;2024-03-17T15:08:33;15.10;53.50
23633;DHT22;11993;48.748;9.166;2024-03-17T15:10:59;15.20;54.20
23633;DHT22;11993;48.748;9.166;2024-03-17T15:13:25;15.50;52.90
23633;DHT22;11993;48.748;9.166;2024-03-17T15:15:51;15.40;51.90
23633;DHT22;11993;48.748;9.166;2024-03-17T15:18:20;15.50;53.00
23633;DHT22;11993;48.748;9.166;2024-03-17T15:20:54;15.80;53.20
23633;DHT22;11993;48.748;9.166;2024-03-17T15:23:23;15.90;52.10
23633;DHT22;11993;48.748;9.166;2024-03-17T15:26:05;15.30;53.60
23633;DHT22;11993;48.748;9.166;2024-03-17T15:28:35;15.10;54.80
23633;DHT22;11993;48.748;9.166;2024-03-17T15:31:07;15.00;55.60
23633;DHT22;11993;48.748;9.166;2024-03-17T15:33:33;14.60;56.40
23633;DHT22;11993;48.748;9.166;2024-03-17T15:36:03;14.30;58.00
23633;DHT22;11993;48.748;9.166;2024-03-17T15:38:30;14.30;57.60
23633;DHT22;11993;48.748;9.166;2024-03-17T15:40:57;14.30;60.10
23633;DHT22;11993;48.748;9.166;2024-03-17T15:43:22;14.60;60.80
23633;DHT22;11993;48.748;9.166;2024-03-17T15:45:48;14.60;59.10
23633;DHT22;11993;48.748;9.166;2024-03-17T15:48:13;14.60;57.90
23633;DHT22;11993;48.748;9.166;2024-03-17T15:50:39;14.70;59.10
23633;DHT22;11993;48.748;9.166;2024-03-17T15:53:05;14.50;58.50
23633;DHT22;11993;48.748;9.166;2024-03-17T15:55:32;14.30;58.10
23633;DHT22;11993;48.748;9.166;2024-03-17T15:57:57;14.20;58.90
23633;DHT22;11993;48.748;9.166;2024-03-17T16:00:23;14.10;59.30
23633;DHT22;11993;48.748;9.166;2024-03-17T16:02:48;13.80;60.40
23633;DHT22;11993;48.748;9.166;2024-03-17T16:05:19;13.70;60.90
23633;DHT22;11993;48.748;9.166;2024-03-17T16:07:45;13.70;60.50